Time;durP1;ratioP1;P1;durP2;ratioP2;P2;SDS_P1;SDS_P2;PMS_P1;PMS_P2;Temp;Humidity;BMP_temperature;BMP_pressure;BME280_temperature;BME280_humidity;BME280_pressure;Samples;Min_cycle;Max_cycle;Signal;HPM_P1;HPM_P2
2021/06/25 00:00:32;;;;;;;1.40;0.82;;;17.10;99.90;;;;;;4975515;28;20031;-78
2021/06/25 00:02:58;;;;;;;1.10;0.80;;;17.00;99.90;;;;;;4975767;28;20046;-79
2021/06/25 00:05:24;;;;;;;3.78;1.00;;;17.00;99.90;;;;;;4974668;28;20414;-79
2021/06/25 00:07:50;;;;;;;3.97;0.90;;;16.90;99.90;;;;;;4975586;28;20105;-79
2021/06/25 00:10:15;;;;;;;2.70;0.90;;;16.80;99.90;;;;;;4975348;28;20463;-79
2021/06/25 00:12:41;;;;;;;0.65;0.60;;;16.80;99.90;;;;;;4975433;28;20158;-78
2021/06/25 00:15:08;;;;;;;1.83;0.77;;;16.70;99.90;;;;;;4975914;28;20022;-81
2021/06/25 00:17:34;;;;;;;2.47;1.00;;;16.70;99.90;;;;;;4975163;28;20518;-79
2021/06/25 00:20:00;;;;;;;4.43;1.05;;;16.70;99.90;;;;;;4975819;28;20031;-79
2021/06/25 00:22:26;;;;;;;3.45;1.00;;;16.70;99.90;;;;;;4957806;28;20035;-79
2021/06/25 00:24:53;;;;;;;1.00;0.90;;;16.70;99.90;;;;;;4975701;28;20073;-78
2021/06/25 00:27:19;;;;;;;1.27;0.93;;;16.70;99.90;;;;;;4957601;28;20085;-79
2021/06/25 00:29:44;;;;;;;2.80;1.10;;;16.60;99.90;;;;;;4975056;28;20500;-79
2021/06/25 00:32:10;;;;;;;1.25;0.60;;;16.60;99.90;;;;;;4975250;28;20110;-79
2021/06/25 00:34:36;;;;;;;3.00;0.90;;;16.60;99.90;;;;;;4975378;28;20042;-78
2021/06/25 00:37:02;;;;;;;3.58;1.13;;;16.60;99.90;;;;;;4975062;28;20493;-79
2021/06/25 00:39:28;;;;;;;1.05;0.95;;;16.60;99.90;;;;;;4975019;28;20027;-78
2021/06/25 00:41:53;;;;;;;3.20;0.98;;;16.60;99.90;;;;;;4975304;28;20031;-78
2021/06/25 00:44:20;;;;;;;2.88;0.90;;;16.60;99.90;;;;;;4975172;28;20057;-79
2021/06/25 00:46:47;;;;;;;1.52;0.95;;;16.50;99.90;;;;;;4975098;28;20030;-78
2021/06/25 00:49:13;;;;;;;3.80;1.00;;;16.50;99.90;;;;;;4975141;28;20062;-78
2021/06/25 00:51:39;;;;;;;0.80;0.80;;;16.50;99.90;;;;;;4975045;28;20030;-79
2021/06/25 00:54:11;;;;;;;0.73;0.73;;;16.50;99.90;;;;;;4974692;28;20097;-79
2021/06/25 00:56:37;;;;;;;3.20;1.08;;;16.50;99.90;;;;;;4975129;28;20106;-79
2021/06/25 00:59:04;;;;;;;1.10;0.80;;;16.50;99.90;;;;;;4974781;28;20041;-78
2021/06/25 01:01:30;;;;;;;8.40;1.38;;;16.50;99.90;;;;;;4974787;28;20031;-78
2021/06/25 01:03:56;;;;;;;1.30;0.85;;;16.50;99.90;;;;;;4974831;28;20101;-78
2021/06/25 01:06:23;;;;;;;1.83;0.80;;;16.50;99.90;;;;;;4974327;28;20029;-79
2021/06/25 01:08:48;;;;;;;1.08;0.93;;;16.50;99.90;;;;;;4974422;28;20035;-79
2021/06/25 01:11:14;;;;;;;1.17;1.00;;;16.40;99.90;;;;;;4974500;28;20089;-78
2021/06/25 01:13:41;;;;;;;1.92;1.05;;;16.40;99.90;;;;;;4974520;28;20038;-79
2021/06/25 01:16:07;;;;;;;1.33;1.10;;;16.30;99.90;;;;;;4974103;28;20458;-78
2021/06/25 01:52:15;;;;;;;2.15;1.10;;;16.30;99.90;;;;;;6079934;23;20005;-72
2021/06/25 01:54:41;;;;;;;3.30;0.95;;;16.40;99.90;;;;;;5008711;28;20077;-71
2021/06/25 01:57:07;;;;;;;1.58;1.15;;;16.40;99.90;;;;;;4994744;28;20095;-71
2021/06/25 01:59:32;;;;;;;1.20;1.10;;;16.40;99.90;;;;;;5012334;28;20026;-71
2021/06/25 02:01:58;;;;;;;4.53;0.98;;;16.40;99.90;;;;;;5012469;28;20068;-71
2021/06/25 02:04:24;;;;;;;0.95;0.95;;;16.40;99.90;;;;;;5012154;28;20032;-71
2021/06/25 02:06:49;;;;;;;1.42;1.17;;;16.40;99.90;;;;;;5012310;28;20057;-71
2021/06/25 02:09:15;;;;;;;1.38;1.27;;;16.40;99.90;;;;;;5012211;28;20028;-71
2021/06/25 02:11:41;;;;;;;1.08;0.98;;;16.40;99.90;;;;;;5012179;28;20026;-71
2021/06/25 02:14:07;;;;;;;3.90;1.20;;;16.40;99.90;;;;;;5012276;28;20073;-71
2021/06/25 02:16:32;;;;;;;5.38;1.05;;;16.40;99.90;;;;;;5012158;28;20072;-71
2021/06/25 02:18:58;;;;;;;1.70;1.00;;;16.50;99.90;;;;;;4994354;28;20397;-71
2021/06/25 02:21:24;;;;;;;3.75;1.80;;;16.40;99.90;;;;;;5012204;28;20126;-72
2021/06/25 02:23:50;;;;;;;1.02;0.93;;;16.50;99.90;;;;;;5011915;28;20037;-72
2021/06/25 02:26:15;;;;;;;2.08;1.15;;;16.50;99.90;;;;;;5012129;28;20461;-71
2021/06/25 02:28:41;;;;;;;1.40;1.20;;;16.50;99.90;;;;;;5014122;28;20022;-71
2021/06/25 02:31:07;;;;;;;1.27;1.17;;;16.50;99.90;;;;;;5016077;28;20026;-71
2021/06/25 02:33:32;;;;;;;2.05;1.40;;;16.50;99.90;;;;;;5015934;28;20486;-71
2021/06/25 02:35:58;;;;;;;5.18;1.15;;;16.60;99.90;;;;;;5015851;28;20108;-71
2021/06/25 02:38:24;;;;;;;1.27;1.17;;;16.60;99.90;;;;;;5015972;28;20030;-71
2021/06/25 02:40:50;;;;;;;4.13;1.17;;;16.60;99.90;;;;;;5015863;28;20033;-72
2021/06/25 02:43:15;;;;;;;2.40;1.55;;;16.60;99.90;;;;;;5015935;28;20022;-72
2021/06/25 02:45:41;;;;;;;1.90;1.20;;;16.70;99.90;;;;;;5015957;28;20025;-71
2021/06/25 02:48:07;;;;;;;1.20;1.10;;;16.70;99.90;;;;;;5015596;28;20461;-72
2021/06/25 02:50:33;;;;;;;1.70;1.20;;;16.80;99.90;;;;;;5015841;28;20056;-71
2021/06/25 02:52:58;;;;;;;1.30;1.20;;;16.90;99.90;;;;;;5015438;28;20073;-72
2021/06/25 02:55:24;;;;;;;3.20;1.10;;;17.10;99.90;;;;;;5015632;28;20459;-71
2021/06/25 02:57:50;;;;;;;1.65;1.20;;;17.30;99.90;;;;;;5015694;28;20116;-71
2021/06/25 03:00:17;;;;;;;1.35;1.20;;;17.50;99.90;;;;;;5015620;28;20069;-72
2021/06/25 03:02:43;;;;;;;4.28;1.45;;;17.60;99.90;;;;;;5015618;28;20449;-72
2021/06/25 03:05:12;;;;;;;1.20;1.10;;;17.70;99.90;;;;;;5015383;28;20076;-72
2021/06/25 03:07:38;;;;;;;1.80;1.23;;;17.70;99.90;;;;;;5015496;28;20405;-71
2021/06/25 03:10:05;;;;;;;1.33;1.08;;;17.60;99.90;;;;;;5015291;28;20026;-72
2021/06/25 03:12:32;;;;;;;1.23;1.10;;;17.60;99.90;;;;;;5015244;28;20520;-72
2021/06/25 03:14:58;;;;;;;3.38;1.08;;;17.70;99.90;;;;;;5015080;28;20072;-71
2021/06/25 03:17:24;;;;;;;1.48;1.08;;;17.70;99.90;;;;;;5015257;28;20061;-72
2021/06/25 03:19:49;;;;;;;1.67;0.90;;;17.80;99.90;;;;;;5015284;28;20025;-71
2021/06/25 03:22:15;;;;;;;3.65;1.10;;;18.10;99.90;;;;;;5015297;28;20102;-72
2021/06/25 03:24:41;;;;;;;3.05;1.50;;;18.40;99.90;;;;;;5015169;28;20034;-72
2021/06/25 03:27:06;;;;;;;1.20;1.10;;;18.80;99.90;;;;;;5015081;28;20476;-71
2021/06/25 03:29:32;;;;;;;1.20;1.10;;;19.10;99.90;;;;;;5015110;28;20068;-72
2021/06/25 03:31:58;;;;;;;1.17;1.08;;;19.30;99.90;;;;;;5014974;28;20049;-72
2021/06/25 03:34:25;;;;;;;3.88;1.30;;;19.40;99.90;;;;;;5014930;28;20477;-72
2021/06/25 03:36:51;;;;;;;1.10;1.00;;;19.70;99.90;;;;;;5014791;28;20508;-72
2021/06/25 03:39:17;;;;;;;1.45;0.90;;;20.00;99.10;;;;;;5014584;28;20026;-72
2021/06/25 03:41:42;;;;;;;1.20;1.10;;;20.30;98.00;;;;;;5015192;28;20052;-72
2021/06/25 03:44:08;;;;;;;2.72;1.10;;;20.60;96.00;;;;;;5014671;28;20469;-72
2021/06/25 03:46:34;;;;;;;2.50;1.15;;;21.00;94.00;;;;;;5014907;28;20030;-72
2021/06/25 03:49:00;;;;;;;2.53;1.20;;;21.20;92.80;;;;;;5014575;28;20496;-72
2021/06/25 03:51:25;;;;;;;5.03;1.00;;;21.30;91.80;;;;;;5014802;28;20033;-72
2021/06/25 03:53:51;;;;;;;1.20;1.00;;;21.40;91.40;;;;;;4996633;28;20149;-72
2021/06/25 03:56:17;;;;;;;3.42;1.10;;;21.50;90.20;;;;;;5014592;28;20030;-72
2021/06/25 03:58:46;;;;;;;1.35;1.10;;;21.80;88.60;;;;;;5014549;28;20061;-72
2021/06/25 04:01:12;;;;;;;1.20;1.10;;;22.00;87.10;;;;;;5014460;28;20381;-72
2021/06/25 04:03:38;;;;;;;1.25;1.00;;;22.10;85.00;;;;;;5014429;28;20501;-72
2021/06/25 04:06:04;;;;;;;1.23;0.90;;;22.30;84.20;;;;;;5014310;28;20049;-72
2021/06/25 04:08:31;;;;;;;1.23;1.08;;;22.50;83.40;;;;;;4996752;28;20022;-72
2021/06/25 04:10:58;;;;;;;0.95;0.90;;;22.60;81.50;;;;;;5014265;28;20025;-72
2021/06/25 04:13:28;;;;;;;1.08;0.90;;;22.70;80.10;;;;;;5014483;28;20540;-72
2021/06/25 04:15:55;;;;;;;2.33;1.02;;;22.70;78.80;;;;;;5014143;28;20014;-71
2021/06/25 04:18:22;;;;;;;1.02;0.93;;;22.50;80.40;;;;;;5014185;28;20519;-72
2021/06/25 04:20:48;;;;;;;1.20;1.00;;;22.40;80.40;;;;;;5014129;28;20075;-72
2021/06/25 04:23:14;;;;;;;1.23;1.00;;;22.40;81.10;;;;;;5014535;28;20401;-72
2021/06/25 04:25:40;;;;;;;0.90;0.82;;;22.60;80.90;;;;;;5013958;28;20022;-71
2021/06/25 04:28:06;;;;;;;1.20;1.10;;;22.80;79.50;;;;;;5014073;28;20044;-72
2021/06/25 04:30:34;;;;;;;2.45;1.10;;;23.00;77.90;;;;;;5013937;28;20133;-72
2021/06/25 04:33:00;;;;;;;1.73;1.17;;;23.20;76.70;;;;;;5013723;28;20382;-72
2021/06/25 04:35:30;;;;;;;2.50;0.90;;;23.40;75.30;;;;;;5013831;28;20022;-72
2021/06/25 04:37:56;;;;;;;1.33;1.02;;;23.60;73.00;;;;;;5013710;28;20034;-72
2021/06/25 04:40:22;;;;;;;1.15;0.90;;;23.70;73.50;;;;;;5013994;28;20022;-72
2021/06/25 04:42:48;;;;;;;1.45;0.98;;;23.60;72.50;;;;;;5013999;28;20539;-72
2021/06/25 04:45:15;;;;;;;1.17;0.90;;;23.70;72.80;;;;;;5013729;28;20465;-72
2021/06/25 04:47:45;;;;;;;4.30;0.90;;;23.80;71.70;;;;;;5013637;28;20018;-72
2021/06/25 04:50:11;;;;;;;2.03;1.00;;;23.90;71.30;;;;;;5013350;28;20520;-72
2021/06/25 04:52:37;;;;;;;1.77;1.10;;;23.90;71.30;;;;;;5013062;28;20589;-72
2021/06/25 04:55:03;;;;;;;4.25;0.85;;;23.90;71.60;;;;;;5013441;28;20091;-72
2021/06/25 04:57:29;;;;;;;1.55;0.80;;;23.80;71.70;;;;;;5013433;28;20034;-72
2021/06/25 04:59:55;;;;;;;1.13;1.00;;;23.80;70.40;;;;;;5013218;28;20101;-72
2021/06/25 05:02:21;;;;;;;1.73;1.38;;;23.70;71.10;;;;;;5013418;28;20033;-72
2021/06/25 05:04:46;;;;;;;1.40;0.85;;;23.70;71.40;;;;;;5013607;28;20468;-72
2021/06/25 05:07:12;;;;;;;1.75;0.95;;;23.80;71.40;;;;;;5013475;28;20030;-72
2021/06/25 05:09:38;;;;;;;1.13;0.90;;;23.90;72.00;;;;;;5013201;28;20061;-72
2021/06/25 05:12:04;;;;;;;1.02;0.80;;;24.20;70.80;;;;;;5013315;28;20029;-72
2021/06/25 05:14:30;;;;;;;1.05;0.95;;;24.60;70.40;;;;;;5013173;28;20022;-72
2021/06/25 05:16:56;;;;;;;0.82;0.80;;;25.00;67.40;;;;;;5013163;28;20056;-72
2021/06/25 05:19:22;;;;;;;2.28;0.88;;;25.40;66.30;;;;;;5012978;28;20473;-72
2021/06/25 05:21:47;;;;;;;1.45;0.70;;;25.70;64.80;;;;;;5013170;28;20036;-72
2021/06/25 05:24:13;;;;;;;1.15;0.60;;;26.00;63.80;;;;;;5013027;28;20065;-72
2021/06/25 05:26:39;;;;;;;1.13;0.70;;;26.30;63.00;;;;;;5012906;28;20412;-72
2021/06/25 05:29:05;;;;;;;0.95;0.80;;;26.50;62.70;;;;;;5012746;28;20030;-72
2021/06/25 05:31:30;;;;;;;1.05;0.70;;;26.90;61.10;;;;;;5012880;28;20032;-72
2021/06/25 05:33:59;;;;;;;0.73;0.73;;;27.00;59.80;;;;;;5012601;28;20060;-72
2021/06/25 05:36:25;;;;;;;0.90;0.70;;;27.10;59.70;;;;;;5012788;28;20496;-72
2021/06/25 05:38:51;;;;;;;2.05;0.80;;;27.30;59.30;;;;;;5012730;28;20053;-72
2021/06/25 05:41:17;;;;;;;0.77;0.68;;;27.50;58.60;;;;;;4995037;28;20034;-72
2021/06/25 05:43:43;;;;;;;0.60;0.60;;;27.70;58.70;;;;;;5011398;28;20032;-72
2021/06/25 05:46:12;;;;;;;0.60;0.60;;;27.60;58.40;;;;;;5012601;28;20024;-72
2021/06/25 05:48:39;;;;;;;1.38;0.60;;;27.40;58.80;;;;;;5012521;28;20539;-72
2021/06/25 05:51:06;;;;;;;0.90;0.70;;;27.30;58.30;;;;;;5012733;28;20034;-72
2021/06/25 05:53:32;;;;;;;1.13;0.75;;;27.10;58.70;;;;;;5012279;28;20111;-72
2021/06/25 05:55:58;;;;;;;0.73;0.63;;;27.20;58.90;;;;;;5012315;28;20036;-73
2021/06/25 05:58:24;;;;;;;0.80;0.70;;;27.30;58.10;;;;;;5012504;28;20073;-72
2021/06/25 06:00:50;;;;;;;0.93;0.68;;;27.20;57.80;;;;;;5012629;28;20025;-72
2021/06/25 06:03:16;;;;;;;3.33;1.23;;;27.30;57.50;;;;;;5012439;28;20109;-72
2021/06/25 06:05:42;;;;;;;0.57;0.57;;;27.60;57.60;;;;;;5012241;28;20458;-74
2021/06/25 06:08:08;;;;;;;0.47;0.47;;;27.70;56.50;;;;;;5012230;28;20404;-75
2021/06/25 06:10:35;;;;;;;1.42;0.70;;;27.80;56.20;;;;;;5012221;28;20485;-72
2021/06/25 06:13:01;;;;;;;0.80;0.40;;;27.70;55.50;;;;;;5012300;28;20072;-72
2021/06/25 06:15:28;;;;;;;3.25;0.70;;;27.50;55.00;;;;;;5012155;28;20029;-75
2021/06/25 06:17:53;;;;;;;0.50;0.50;;;27.30;56.00;;;;;;5012139;28;20113;-73
2021/06/25 06:20:25;;;;;;;4.25;1.00;;;27.30;57.00;;;;;;5011993;28;20105;-72
2021/06/25 06:31:23;;;;;;;0.85;0.70;;;26.60;58.40;;;;;;5012260;28;20072;-72
2021/06/25 06:36:31;;;;;;;1.15;0.70;;;26.50;58.80;;;;;;5011918;28;20026;-72
2021/06/25 06:38:59;;;;;;;1.98;0.73;;;26.50;59.10;;;;;;5011819;28;20038;-72
2021/06/25 06:41:26;;;;;;;0.70;0.65;;;26.50;59.90;;;;;;5012049;28;20084;-72
2021/06/25 06:43:52;;;;;;;0.70;0.70;;;26.80;58.70;;;;;;5011899;28;20053;-72
2021/06/25 06:46:18;;;;;;;0.65;0.60;;;27.00;59.00;;;;;;5011934;28;20029;-72
2021/06/25 06:48:47;;;;;;;0.40;0.40;;;27.20;58.10;;;;;;5012033;28;20018;-72
2021/06/25 06:51:14;;;;;;;0.70;0.68;;;27.40;57.50;;;;;;5011772;28;20029;-72
2021/06/25 06:53:43;;;;;;;1.05;0.80;;;27.40;56.80;;;;;;5011686;28;20037;-72
2021/06/25 06:56:14;;;;;;;0.68;0.52;;;27.30;57.00;;;;;;5011612;28;20117;-72
2021/06/25 06:58:40;;;;;;;0.52;0.52;;;27.20;57.10;;;;;;5012139;28;20037;-72
2021/06/25 07:01:07;;;;;;;0.47;0.40;;;27.20;55.40;;;;;;5011819;28;20037;-72
2021/06/25 07:03:33;;;;;;;1.75;0.70;;;27.20;53.20;;;;;;4994127;28;20022;-72
2021/06/25 07:05:59;;;;;;;0.70;0.70;;;27.10;54.70;;;;;;5011557;28;20029;-72
2021/06/25 07:08:24;;;;;;;1.58;0.60;;;26.90;56.50;;;;;;5011728;28;20092;-72
2021/06/25 07:10:50;;;;;;;0.60;0.60;;;26.90;56.60;;;;;;5011700;28;20080;-72
2021/06/25 07:13:16;;;;;;;0.52;0.50;;;26.80;57.30;;;;;;5011896;28;20022;-72
2021/06/25 07:15:42;;;;;;;0.70;0.70;;;26.70;57.50;;;;;;5015022;28;20539;-72
2021/06/25 07:18:08;;;;;;;1.45;0.60;;;26.70;58.10;;;;;;4997572;28;20045;-72
2021/06/25 07:20:33;;;;;;;0.90;0.70;;;26.50;59.40;;;;;;5015415;28;20492;-72
2021/06/25 07:23:00;;;;;;;1.17;0.80;;;26.50;59.90;;;;;;5015095;28;20052;-72
2021/06/25 07:25:26;;;;;;;2.38;0.70;;;26.40;59.10;;;;;;5013901;28;20370;-72
2021/06/25 07:27:51;;;;;;;0.88;0.55;;;26.40;57.90;;;;;;5015678;28;20140;-72
2021/06/25 07:30:17;;;;;;;1.13;0.80;;;26.40;58.50;;;;;;5015538;28;20025;-72
2021/06/25 07:32:43;;;;;;;1.27;0.60;;;26.30;59.50;;;;;;5015124;28;20026;-72
2021/06/25 07:35:10;;;;;;;0.95;0.70;;;26.30;58.90;;;;;;5014813;28;20026;-72
2021/06/25 07:37:36;;;;;;;0.75;0.50;;;26.20;58.70;;;;;;5014991;28;20048;-72
2021/06/25 07:40:04;;;;;;;0.68;0.50;;;26.10;58.60;;;;;;5014683;28;20026;-72
2021/06/25 07:42:29;;;;;;;0.40;0.40;;;26.10;59.50;;;;;;5014806;28;20061;-72
2021/06/25 07:44:55;;;;;;;1.73;0.60;;;26.00;59.10;;;;;;5014756;28;20057;-72
2021/06/25 07:47:21;;;;;;;0.50;0.40;;;26.00;58.90;;;;;;5014611;28;20060;-72
2021/06/25 07:49:47;;;;;;;3.13;0.60;;;25.90;58.30;;;;;;5014733;28;20392;-72
2021/06/25 07:52:13;;;;;;;0.60;0.60;;;25.80;58.20;;;;;;5014490;28;20068;-72
2021/06/25 07:54:39;;;;;;;0.63;0.60;;;25.80;58.30;;;;;;5014445;28;20049;-72
2021/06/25 07:57:05;;;;;;;2.08;0.60;;;25.80;58.60;;;;;;5014409;28;20034;-72
2021/06/25 07:59:31;;;;;;;0.40;0.40;;;25.80;57.80;;;;;;5014515;28;20034;-72
2021/06/25 08:01:59;;;;;;;0.43;0.40;;;25.80;57.30;;;;;;5014818;28;20025;-72
2021/06/25 08:04:26;;;;;;;2.25;0.52;;;25.80;57.10;;;;;;5014179;28;20037;-72
2021/06/25 08:06:52;;;;;;;0.82;0.73;;;25.80;57.50;;;;;;5014419;28;20389;-72
2021/06/25 08:09:18;;;;;;;1.20;0.70;;;25.80;57.30;;;;;;5014208;28;20029;-72
2021/06/25 08:11:43;;;;;;;0.65;0.50;;;25.80;58.50;;;;;;5014381;28;20054;-72
2021/06/25 08:14:09;;;;;;;1.10;0.57;;;25.90;57.70;;;;;;5014175;28;20093;-72
2021/06/25 08:16:35;;;;;;;0.43;0.40;;;26.00;58.00;;;;;;5014232;28;20022;-72
2021/06/25 08:19:01;;;;;;;2.22;0.70;;;25.90;58.00;;;;;;5014270;28;20378;-72
2021/06/25 08:21:29;;;;;;;1.90;0.60;;;25.80;57.10;;;;;;5014084;28;20387;-72
2021/06/25 08:23:56;;;;;;;0.93;0.60;;;25.80;57.20;;;;;;5014187;28;20212;-72
2021/06/25 08:26:22;;;;;;;2.35;0.60;;;25.70;57.00;;;;;;5012602;28;20057;-72
2021/06/25 08:28:48;;;;;;;0.80;0.55;;;25.60;57.60;;;;;;5013981;28;20388;-72
2021/06/25 08:31:14;;;;;;;1.15;0.80;;;25.60;58.80;;;;;;5013729;28;20109;-72
2021/06/25 08:33:40;;;;;;;0.63;0.45;;;25.60;58.60;;;;;;5014447;28;20033;-72
2021/06/25 08:36:07;;;;;;;3.95;0.80;;;25.60;58.40;;;;;;5013653;28;20018;-72
2021/06/25 08:38:33;;;;;;;1.15;0.73;;;25.70;57.70;;;;;;5013879;28;20029;-72
2021/06/25 08:40:59;;;;;;;1.95;0.60;;;25.60;58.80;;;;;;5013849;28;20022;-72
2021/06/25 08:43:26;;;;;;;0.60;0.60;;;25.60;58.60;;;;;;5013838;28;20413;-72
2021/06/25 08:45:52;;;;;;;0.98;0.52;;;25.60;58.20;;;;;;5013826;28;20030;-72
2021/06/25 08:48:18;;;;;;;3.78;0.77;;;25.60;57.00;;;;;;5013739;28;20030;-72
2021/06/25 08:50:50;;;;;;;0.63;0.60;;;25.70;57.70;;;;;;4995878;28;20038;-72
2021/06/25 08:53:16;;;;;;;0.50;0.50;;;25.70;57.40;;;;;;5013552;28;20053;-72
2021/06/25 08:55:44;;;;;;;4.43;0.70;;;25.70;58.40;;;;;;5013994;28;20087;-72
2021/06/25 08:58:19;;;;;;;0.50;0.50;;;25.70;58.10;;;;;;5013211;28;20066;-72
2021/06/25 09:00:46;;;;;;;1.50;0.52;;;25.80;59.20;;;;;;5013532;28;20057;-72
2021/06/25 09:03:29;;;;;;;1.45;0.68;;;25.80;57.50;;;;;;5013446;28;20034;-72
2021/06/25 09:06:14;;;;;;;2.33;0.50;;;25.60;57.00;;;;;;5013311;28;20025;-72
2021/06/25 09:08:41;;;;;;;1.98;0.70;;;25.60;57.50;;;;;;5013291;28;20033;-72
2021/06/25 09:11:26;;;;;;;1.08;0.70;;;25.60;57.00;;;;;;5013219;28;20026;-72
2021/06/25 09:14:01;;;;;;;0.63;0.60;;;25.40;57.30;;;;;;5013210;28;20493;-72
2021/06/25 09:16:32;;;;;;;0.52;0.50;;;25.40;58.20;;;;;;5012785;28;20021;-72
2021/06/25 09:19:05;;;;;;;1.67;0.63;;;25.50;58.10;;;;;;5013191;28;20064;-72
2021/06/25 09:21:40;;;;;;;0.50;0.50;;;25.60;58.40;;;;;;5012981;28;20033;-72
2021/06/25 09:24:24;;;;;;;0.80;0.70;;;25.50;57.10;;;;;;5012879;28;20508;-72
2021/06/25 09:26:56;;;;;;;0.50;0.50;;;25.30;57.20;;;;;;5012958;28;20021;-72
2021/06/25 09:29:23;;;;;;;0.82;0.70;;;25.30;57.70;;;;;;5012769;28;20397;-72
2021/06/25 09:32:09;;;;;;;0.70;0.70;;;25.30;58.10;;;;;;5012928;28;20087;-72
2021/06/25 09:34:51;;;;;;;1.17;0.57;;;25.30;58.00;;;;;;5012870;28;20026;-72
2021/06/25 09:37:19;;;;;;;0.75;0.75;;;25.30;58.00;;;;;;5012435;28;20026;-72
2021/06/25 09:40:03;;;;;;;3.47;0.82;;;25.30;58.40;;;;;;5012752;28;20046;-72
2021/06/25 09:42:29;;;;;;;0.70;0.60;;;25.40;58.80;;;;;;5012640;28;20022;-72
2021/06/25 09:45:06;;;;;;;1.25;0.60;;;25.40;58.30;;;;;;5012677;28;20029;-72
2021/06/25 09:47:37;;;;;;;1.02;0.60;;;25.30;57.80;;;;;;4994995;28;20026;-72
2021/06/25 09:50:31;;;;;;;0.98;0.60;;;25.10;57.30;;;;;;5012496;28;20049;-72
2021/06/25 09:53:03;;;;;;;0.85;0.70;;;25.10;58.80;;;;;;4991389;28;20456;-72
2021/06/25 09:55:53;;;;;;;0.70;0.60;;;25.10;58.60;;;;;;4992759;28;20541;-72
2021/06/25 10:01:21;;;;;;;15.68;1.35;;;25.10;58.90;;;;;;4993086;28;20501;-72
2021/06/25 10:04:02;;;;;;;11.93;1.65;;;25.20;58.30;;;;;;4996205;28;20045;-73
2021/06/25 10:06:34;;;;;;;2.92;0.85;;;25.10;58.60;;;;;;5012248;28;20045;-77
2021/06/25 10:09:00;;;;;;;3.95;0.75;;;25.10;58.00;;;;;;5000911;28;20064;-74
2021/06/25 10:11:28;;;;;;;0.75;0.60;;;25.00;57.50;;;;;;4992602;28;20041;-75
2021/06/25 10:13:55;;;;;;;1.20;0.73;;;25.10;58.00;;;;;;4992707;28;20054;-76
2021/06/25 10:16:22;;;;;;;1.52;0.88;;;25.10;58.10;;;;;;4980960;28;20077;-73
2021/06/25 10:18:50;;;;;;;4.53;0.73;;;25.00;58.10;;;;;;5005683;28;20078;-82
2021/06/25 10:21:22;;;;;;;0.45;0.45;;;24.90;58.20;;;;;;5007944;28;20077;-75
2021/06/25 10:23:50;;;;;;;0.60;0.60;;;24.80;58.20;;;;;;5006347;28;20026;-75
2021/06/25 10:26:18;;;;;;;0.88;0.88;;;24.70;58.00;;;;;;5012313;28;20421;-75
2021/06/25 10:28:45;;;;;;;0.63;0.57;;;24.70;59.00;;;;;;5012205;28;20022;-75
2021/06/25 10:31:12;;;;;;;0.73;0.73;;;24.60;58.50;;;;;;5012158;28;20129;-75
2021/06/25 10:33:38;;;;;;;2.22;0.65;;;24.60;58.20;;;;;;5012144;28;20486;-75
2021/06/25 10:36:10;;;;;;;1.40;0.75;;;24.50;58.50;;;;;;5011911;28;20022;-75
2021/06/25 10:38:38;;;;;;;2.13;0.88;;;24.50;58.70;;;;;;5012406;28;20036;-75
2021/06/25 10:41:06;;;;;;;1.27;0.60;;;24.60;59.20;;;;;;5011912;28;20105;-75
2021/06/25 10:43:41;;;;;;;1.27;0.70;;;24.50;59.30;;;;;;5011894;28;20038;-75
2021/06/25 10:46:29;;;;;;;2.47;0.90;;;24.50;59.20;;;;;;5011915;28;20045;-75
2021/06/25 10:49:00;;;;;;;1.20;0.93;;;24.50;60.00;;;;;;5012820;28;20032;-75
2021/06/25 10:51:32;;;;;;;0.77;0.60;;;24.40;59.50;;;;;;5015727;28;20018;-75
2021/06/25 10:54:05;;;;;;;0.85;0.77;;;24.40;60.30;;;;;;5029507;28;20440;-75
2021/06/25 10:56:30;;;;;;;0.85;0.80;;;24.40;59.80;;;;;;5017489;28;20034;-75
2021/06/25 10:59:26;;;;;;;1.88;0.80;;;24.40;60.10;;;;;;5017764;28;20432;-74
2021/06/25 11:01:58;;;;;;;2.67;0.70;;;24.50;59.70;;;;;;5035407;28;20025;-75
2021/06/25 11:04:30;;;;;;;0.77;0.70;;;24.50;59.30;;;;;;5035336;28;20072;-75
2021/06/25 11:06:58;;;;;;;1.05;0.75;;;24.40;58.60;;;;;;5035333;28;20056;-75
2021/06/25 11:09:47;;;;;;;1.02;0.80;;;24.40;58.80;;;;;;5035259;28;20032;-76
2021/06/25 11:12:16;;;;;;;1.63;0.70;;;24.30;58.90;;;;;;5017254;28;20034;-75
2021/06/25 11:14:42;;;;;;;;;;;24.20;59.00;;;;;;5035701;28;20021;-76
2021/06/25 11:17:08;;;;;;;0.77;0.75;;;24.20;59.20;;;;;;5035221;28;19920;-76
2021/06/25 11:19:42;;;;;;;0.85;0.70;;;24.30;59.60;;;;;;5033761;28;20036;-76
2021/06/25 11:22:50;;;;;;;2.15;0.65;;;24.30;59.70;;;;;;5035089;28;20037;-76
2021/06/25 11:25:42;;;;;;;1.50;0.80;;;24.40;59.40;;;;;;4935350;29;20519;-76
2021/06/25 11:28:09;;;;;;;2.55;1.20;;;24.40;59.10;;;;;;5035022;28;20057;-76
2021/06/25 11:30:59;;;;;;;1.83;0.60;;;24.30;59.40;;;;;;5034724;28;20025;-75
2021/06/25 11:33:26;;;;;;;3.40;0.73;;;24.30;59.70;;;;;;5022623;28;20393;-75
2021/06/25 11:35:53;;;;;;;1.15;0.60;;;24.30;59.60;;;;;;5035081;28;20033;-76
2021/06/25 11:38:19;;;;;;;0.73;0.73;;;24.30;59.10;;;;;;5034524;28;20124;-75
2021/06/25 11:40:48;;;;;;;0.70;0.60;;;24.30;59.10;;;;;;5034771;28;20113;-76
2021/06/25 11:43:14;;;;;;;;;;;24.30;59.40;;;;;;5034993;28;20029;-76
2021/06/25 11:45:45;;;;;;;2.00;0.60;;;24.20;59.30;;;;;;5034604;28;19905;-76
2021/06/25 11:48:12;;;;;;;2.40;0.50;;;24.10;59.10;;;;;;5034678;28;20029;-76
2021/06/25 11:50:38;;;;;;;1.25;0.60;;;24.10;58.80;;;;;;5034837;28;20056;-76
2021/06/25 11:53:05;;;;;;;4.47;0.55;;;24.10;57.80;;;;;;5034283;28;20420;-76
2021/06/25 11:55:31;;;;;;;4.20;1.15;;;24.00;57.80;;;;;;5034281;28;20033;-76
2021/06/25 11:57:56;;;;;;;6.60;0.77;;;24.00;58.00;;;;;;5034446;28;20030;-76
2021/06/25 12:00:24;;;;;;;1.05;0.43;;;24.00;57.20;;;;;;5034052;28;20033;-76
2021/06/25 12:02:59;;;;;;;7.28;0.60;;;24.00;55.60;;;;;;5034624;28;20041;-76
2021/06/25 12:05:27;;;;;;;1.15;0.57;;;23.80;56.00;;;;;;5034391;28;20092;-76
2021/06/25 12:08:04;;;;;;;2.75;0.50;;;23.80;55.50;;;;;;5034321;28;20420;-76
2021/06/25 12:10:31;;;;;;;0.30;0.30;;;23.60;54.90;;;;;;5033983;28;20033;-76
2021/06/25 12:12:58;;;;;;;4.95;0.43;;;23.50;53.00;;;;;;5034107;28;20021;-76
2021/06/25 12:15:25;;;;;;;1.27;0.60;;;23.50;52.40;;;;;;5033915;28;20021;-75
2021/06/25 12:17:53;;;;;;;3.60;0.75;;;23.30;52.50;;;;;;5034265;28;20413;-76
2021/06/25 12:20:27;;;;;;;4.38;1.00;;;23.30;52.70;;;;;;5034060;28;20428;-76
2021/06/25 12:22:56;;;;;;;47.65;2.92;;;23.10;53.20;;;;;;5034324;28;20028;-76
2021/06/25 12:25:40;;;;;;;3.05;0.85;;;23.10;54.60;;;;;;5015976;28;20120;-76
2021/06/25 12:28:11;;;;;;;5.45;1.00;;;23.10;54.20;;;;;;5033911;28;20021;-76
2021/06/25 12:30:40;;;;;;;40.67;2.70;;;23.10;55.00;;;;;;5027863;28;20030;-87
2021/06/25 12:33:07;;;;;;;5.32;1.30;;;23.00;55.00;;;;;;5015349;28;20032;-76
2021/06/25 12:35:35;;;;;;;2.67;1.50;;;22.90;55.80;;;;;;5033645;28;20323;-76
2021/06/25 12:38:06;;;;;;;2.83;1.20;;;22.90;55.50;;;;;;5015936;28;20048;-76
2021/06/25 12:40:36;;;;;;;2.92;0.98;;;22.70;55.00;;;;;;5033575;28;20022;-76
2021/06/25 12:43:02;;;;;;;2.40;0.88;;;22.60;55.70;;;;;;5033691;28;20026;-76
2021/06/25 12:45:41;;;;;;;1.15;1.00;;;22.50;55.90;;;;;;5033343;28;20025;-76
2021/06/25 12:48:15;;;;;;;6.18;1.10;;;22.50;56.20;;;;;;5033550;28;20497;-76
2021/06/25 12:50:42;;;;;;;1.45;0.85;;;22.40;55.90;;;;;;5033484;28;20492;-76
2021/06/25 12:53:13;;;;;;;0.98;0.77;;;22.30;56.20;;;;;;5033159;28;20117;-76
2021/06/25 12:55:38;;;;;;;5.93;1.00;;;22.20;56.20;;;;;;5033240;28;20017;-76
2021/06/25 12:58:05;;;;;;;4.00;0.70;;;22.20;55.70;;;;;;5015454;28;20485;-76
2021/06/25 13:00:31;;;;;;;1.42;0.57;;;22.10;56.30;;;;;;5033128;28;20017;-76
2021/06/25 13:02:57;;;;;;;4.15;0.55;;;22.20;57.10;;;;;;5033185;28;20029;-76
2021/06/25 13:05:33;;;;;;;2.08;1.08;;;22.20;56.50;;;;;;5033217;28;20408;-76
2021/06/25 13:08:14;;;;;;;2.47;0.65;;;22.30;57.60;;;;;;5015431;28;20022;-76
2021/06/25 13:10:40;;;;;;;1.05;0.70;;;22.30;56.80;;;;;;5032800;28;20071;-76
2021/06/25 13:13:23;;;;;;;2.33;0.68;;;22.30;57.10;;;;;;5032658;28;20029;-76
2021/06/25 13:15:58;;;;;;;0.60;0.60;;;22.40;57.40;;;;;;5032913;28;20044;-76
2021/06/25 13:18:38;;;;;;;1.10;0.80;;;22.50;57.30;;;;;;5032890;28;20033;-76
2021/06/25 13:21:28;;;;;;;1.38;0.70;;;22.30;57.30;;;;;;5032823;28;20080;-76
2021/06/25 13:23:56;;;;;;;3.67;0.93;;;22.30;57.80;;;;;;5015629;28;20024;-76
2021/06/25 13:26:32;;;;;;;1.60;0.70;;;22.40;58.00;;;;;;5032935;28;20053;-76
2021/06/25 13:29:00;;;;;;;0.93;0.60;;;22.40;57.50;;;;;;5015632;28;20108;-76
2021/06/25 13:31:26;;;;;;;0.43;0.40;;;22.40;57.50;;;;;;5032713;28;20017;-76
2021/06/25 13:33:52;;;;;;;1.00;0.55;;;22.50;57.50;;;;;;5032704;28;20025;-76
2021/06/25 13:36:19;;;;;;;1.27;0.40;;;22.40;56.90;;;;;;5032339;28;20030;-76
2021/06/25 13:38:44;;;;;;;0.75;0.50;;;22.40;57.10;;;;;;5014922;28;20030;-76
2021/06/25 13:41:22;;;;;;;1.08;0.40;;;22.30;57.30;;;;;;5032651;28;20036;-76